Time;durP1;ratioP1;P1;durP2;ratioP2;P2;SDS_P1;SDS_P2;PMS_P1;PMS_P2;Temp;Humidity;BMP_temperature;BMP_pressure;BME280_temperature;BME280_humidity;BME280_pressure;Samples;Min_cycle;Max_cycle;Signal;HPM_P1;HPM_P2
2021/09/23 00:00:58;;;;;;;0.77;0.43;;;22.80;69.90;;;;;;5102672;28;20203;-36
2021/09/23 00:05:56;;;;;;;0.60;0.50;;;22.80;70.00;;;;;;5122989;28;20031;-36
2021/09/23 00:08:22;;;;;;;0.52;0.50;;;22.80;70.10;;;;;;5122753;28;20047;-36
2021/09/23 00:10:49;;;;;;;1.27;0.50;;;22.80;70.00;;;;;;5122700;28;20053;-36
2021/09/23 00:13:15;;;;;;;0.60;0.50;;;22.80;70.10;;;;;;5122609;28;20291;-36
2021/09/23 00:15:41;;;;;;;0.40;0.40;;;22.80;69.90;;;;;;5122630;28;20024;-36
2021/09/23 00:18:10;;;;;;;0.80;0.52;;;22.80;69.90;;;;;;5122487;28;20047;-37
2021/09/23 00:20:37;;;;;;;0.77;0.50;;;22.80;70.00;;;;;;5122605;28;20500;-36
2021/09/23 00:23:04;;;;;;;0.60;0.50;;;22.80;70.10;;;;;;5122624;28;20053;-36
2021/09/23 00:25:30;;;;;;;0.97;0.50;;;22.80;70.30;;;;;;5122473;28;20063;-36
2021/09/23 00:27:57;;;;;;;0.50;0.50;;;22.80;70.10;;;;;;5122566;28;20035;-37
2021/09/23 00:30:23;;;;;;;1.88;0.55;;;22.80;70.10;;;;;;5122640;28;20066;-36
2021/09/23 00:32:50;;;;;;;0.57;0.50;;;22.70;70.00;;;;;;5104365;28;20028;-36
2021/09/23 00:35:16;;;;;;;0.70;0.60;;;22.80;70.00;;;;;;5122113;28;20597;-37
2021/09/23 00:37:42;;;;;;;0.88;0.50;;;22.70;69.90;;;;;;5122605;28;20046;-36
2021/09/23 00:40:09;;;;;;;0.60;0.57;;;22.70;69.90;;;;;;5122840;28;20020;-36
2021/09/23 00:42:37;;;;;;;2.13;0.60;;;22.70;69.70;;;;;;5122134;28;20059;-36
2021/09/23 00:45:03;;;;;;;;;;;22.70;70.40;;;;;;5122916;28;20051;-36
2021/09/23 00:47:29;;;;;;;0.55;0.45;;;22.70;69.60;;;;;;5122532;28;19907;-36
2021/09/23 00:49:55;;;;;;;0.40;0.40;;;22.70;69.70;;;;;;5122143;28;20076;-36
2021/09/23 00:52:25;;;;;;;0.60;0.52;;;22.70;69.60;;;;;;5103821;28;20071;-36
2021/09/23 00:54:52;;;;;;;0.73;0.50;;;22.70;69.60;;;;;;5121863;28;20031;-36
2021/09/23 00:57:18;;;;;;;;;;;22.70;69.60;;;;;;5122883;28;20120;-36
2021/09/23 00:59:48;;;;;;;0.55;0.45;;;22.70;69.60;;;;;;5122552;28;20237;-36
2021/09/23 01:02:15;;;;;;;0.90;0.30;;;22.70;69.60;;;;;;5122092;28;20058;-37
2021/09/23 01:04:44;;;;;;;0.50;0.50;;;22.70;69.60;;;;;;5121977;28;20053;-36
2021/09/23 01:07:15;;;;;;;0.90;0.50;;;22.70;69.70;;;;;;5122039;28;20031;-36
2021/09/23 01:09:46;;;;;;;0.57;0.50;;;22.70;69.70;;;;;;5121879;28;20024;-36
2021/09/23 01:12:12;;;;;;;2.20;0.57;;;22.60;69.60;;;;;;5107986;28;20024;-36
2021/09/23 01:14:38;;;;;;;0.98;0.63;;;22.60;69.60;;;;;;5125717;28;20016;-36
2021/09/23 01:17:05;;;;;;;1.30;0.50;;;22.60;69.60;;;;;;5125770;28;20042;-36
2021/09/23 01:19:32;;;;;;;1.73;0.50;;;22.60;69.70;;;;;;5125690;28;20031;-36
2021/09/23 01:21:58;;;;;;;;;;;22.60;69.60;;;;;;5125573;27;20020;-36
2021/09/23 01:24:25;;;;;;;0.43;0.40;;;22.60;69.70;;;;;;5125447;28;19986;-36
2021/09/23 01:26:51;;;;;;;0.55;0.35;;;22.60;69.60;;;;;;5125877;28;20042;-36
2021/09/23 01:29:17;;;;;;;0.70;0.40;;;22.60;69.60;;;;;;5107190;28;20119;-36
2021/09/23 01:31:46;;;;;;;0.93;0.60;;;22.60;69.60;;;;;;5118472;28;20031;-36
2021/09/23 01:34:12;;;;;;;0.70;0.50;;;22.60;69.60;;;;;;5104810;28;20017;-36
2021/09/23 01:36:40;;;;;;;2.05;0.50;;;22.50;69.60;;;;;;5104989;28;20027;-36
2021/09/23 01:39:06;;;;;;;2.05;0.45;;;22.50;69.70;;;;;;5104944;28;20067;-36
2021/09/23 01:41:32;;;;;;;1.00;0.50;;;22.50;69.60;;;;;;5105075;28;20027;-36
2021/09/23 01:43:58;;;;;;;0.50;0.50;;;22.50;69.60;;;;;;5105019;28;20586;-36
2021/09/23 01:46:25;;;;;;;0.60;0.50;;;22.50;69.70;;;;;;5105040;28;20483;-36
2021/09/23 01:48:51;;;;;;;1.85;0.60;;;22.50;69.70;;;;;;5104659;28;20051;-36
2021/09/23 01:51:17;;;;;;;0.43;0.43;;;22.50;69.70;;;;;;5105788;28;20048;-37
2021/09/23 01:53:43;;;;;;;0.57;0.47;;;22.50;69.70;;;;;;5125163;28;20019;-36
2021/09/23 01:56:10;;;;;;;0.82;0.40;;;22.40;69.70;;;;;;5124973;28;20032;-36
2021/09/23 01:58:36;;;;;;;2.58;0.60;;;22.40;69.70;;;;;;5124943;28;20057;-36
2021/09/23 02:01:02;;;;;;;1.50;0.60;;;22.40;69.70;;;;;;5125080;28;20028;-36
2021/09/23 02:03:29;;;;;;;0.70;0.40;;;22.40;69.70;;;;;;5124973;28;20395;-36
2021/09/23 02:05:55;;;;;;;0.80;0.45;;;22.40;69.80;;;;;;5124617;28;20027;-36
2021/09/23 02:08:21;;;;;;;1.23;0.55;;;22.40;69.70;;;;;;5124064;28;20024;-36
2021/09/23 02:10:47;;;;;;;0.40;0.40;;;22.40;69.90;;;;;;5123680;28;20035;-36
2021/09/23 02:13:13;;;;;;;0.75;0.40;;;22.40;69.80;;;;;;5124939;28;20086;-36
2021/09/23 02:15:39;;;;;;;0.98;0.50;;;22.40;69.90;;;;;;5124661;28;20036;-36
2021/09/23 02:18:05;;;;;;;1.05;0.40;;;22.30;69.80;;;;;;5108330;28;20128;-36
2021/09/23 02:20:32;;;;;;;0.50;0.43;;;22.30;69.90;;;;;;5104372;28;20518;-37
2021/09/23 02:22:58;;;;;;;1.17;0.50;;;22.30;69.90;;;;;;5116141;28;20040;-36
2021/09/23 02:25:24;;;;;;;0.63;0.50;;;22.30;69.90;;;;;;5124436;28;20024;-36
2021/09/23 02:27:50;;;;;;;2.05;0.50;;;22.30;69.90;;;;;;5124574;28;20031;-36
2021/09/23 02:30:16;;;;;;;0.80;0.60;;;22.30;69.90;;;;;;5124784;28;20027;-36
2021/09/23 02:32:42;;;;;;;0.55;0.40;;;22.30;69.90;;;;;;5124288;28;20028;-36
2021/09/23 02:35:09;;;;;;;0.85;0.50;;;22.30;70.00;;;;;;5124202;28;20050;-37
2021/09/23 02:37:35;;;;;;;0.50;0.50;;;22.30;70.00;;;;;;5124335;28;20027;-36
2021/09/23 02:40:01;;;;;;;1.08;0.40;;;22.30;70.00;;;;;;5124397;28;20035;-37
2021/09/23 02:42:28;;;;;;;0.77;0.50;;;22.20;70.00;;;;;;5124305;28;20051;-37
2021/09/23 02:44:54;;;;;;;2.05;0.60;;;22.20;70.00;;;;;;5124474;28;20059;-36
2021/09/23 02:47:22;;;;;;;0.50;0.50;;;22.20;70.00;;;;;;5124107;28;20383;-36
2021/09/23 02:49:49;;;;;;;0.70;0.40;;;22.20;70.10;;;;;;5124231;28;20027;-36
2021/09/23 02:52:15;;;;;;;;;;;22.20;70.00;;;;;;5124280;28;20082;-36
2021/09/23 02:54:42;;;;;;;1.75;0.93;;;22.20;70.10;;;;;;5123987;28;19904;-37
2021/09/23 02:57:08;;;;;;;0.68;0.57;;;22.20;70.10;;;;;;5123895;28;20039;-36
2021/09/23 02:59:34;;;;;;;0.95;0.47;;;22.20;70.10;;;;;;5124116;28;20066;-36
2021/09/23 03:02:00;;;;;;;0.77;0.60;;;22.10;70.20;;;;;;5123827;28;20595;-36
2021/09/23 03:04:26;;;;;;;0.57;0.50;;;22.10;70.20;;;;;;5123725;28;20035;-36
2021/09/23 03:06:53;;;;;;;1.35;0.60;;;22.10;70.10;;;;;;5123735;28;20472;-37
2021/09/23 03:09:19;;;;;;;0.77;0.50;;;22.10;70.20;;;;;;5123770;28;20031;-36
2021/09/23 03:11:45;;;;;;;1.33;0.60;;;22.10;70.20;;;;;;5123831;28;20027;-36
2021/09/23 03:14:11;;;;;;;0.50;0.50;;;22.10;70.20;;;;;;5123860;28;20023;-36
2021/09/23 03:16:37;;;;;;;1.58;0.52;;;22.10;70.30;;;;;;5105158;28;20032;-36
2021/09/23 03:19:03;;;;;;;0.28;0.22;;;22.10;70.30;;;;;;5123601;28;20039;-37
2021/09/23 03:21:30;;;;;;;1.90;0.60;;;22.10;70.30;;;;;;5123699;28;20027;-36
2021/09/23 03:23:56;;;;;;;0.60;0.45;;;22.00;70.20;;;;;;5123097;28;20049;-36
2021/09/23 03:26:22;;;;;;;0.75;0.50;;;22.00;70.30;;;;;;5105613;28;20028;-36
2021/09/23 03:28:48;;;;;;;1.17;0.40;;;22.00;70.30;;;;;;5103237;28;20023;-36
2021/09/23 03:31:14;;;;;;;0.73;0.45;;;22.00;70.30;;;;;;5103412;28;20052;-36
2021/09/23 03:33:41;;;;;;;0.40;0.40;;;22.00;70.40;;;;;;5120339;28;20035;-36
2021/09/23 03:36:07;;;;;;;0.85;0.45;;;22.00;70.30;;;;;;5123200;28;20774;-37
2021/09/23 03:38:33;;;;;;;0.75;0.50;;;22.00;70.30;;;;;;5123100;28;20031;-36
2021/09/23 03:40:59;;;;;;;1.17;0.50;;;22.00;70.40;;;;;;5123362;28;20023;-36
2021/09/23 03:43:25;;;;;;;0.90;0.50;;;22.00;70.40;;;;;;5123280;28;20038;-37
2021/09/23 03:45:52;;;;;;;0.70;0.40;;;22.00;70.40;;;;;;5123077;28;20022;-36
2021/09/23 03:48:20;;;;;;;0.47;0.47;;;21.90;70.50;;;;;;5123073;28;20098;-36
2021/09/23 03:50:47;;;;;;;0.75;0.40;;;21.90;70.40;;;;;;5123089;28;20056;-36
2021/09/23 03:53:13;;;;;;;0.50;0.50;;;21.90;70.50;;;;;;5104751;28;20024;-36
2021/09/23 03:55:39;;;;;;;0.47;0.47;;;21.90;70.50;;;;;;5123310;28;20027;-36
2021/09/23 03:58:05;;;;;;;2.42;0.50;;;21.90;70.50;;;;;;5122825;28;20031;-36
2021/09/23 04:00:32;;;;;;;1.05;0.50;;;21.90;70.60;;;;;;5122958;28;20063;-36
2021/09/23 04:02:58;;;;;;;0.50;0.50;;;21.90;70.50;;;;;;5122829;28;20032;-36
2021/09/23 04:05:24;;;;;;;0.50;0.50;;;21.90;70.60;;;;;;5123000;28;20028;-37
2021/09/23 04:07:50;;;;;;;0.50;0.40;;;21.80;70.60;;;;;;5122747;28;20038;-36
2021/09/23 04:10:18;;;;;;;0.47;0.40;;;21.80;70.60;;;;;;5123240;28;20094;-36
2021/09/23 04:12:44;;;;;;;0.50;0.50;;;21.80;70.70;;;;;;5122990;28;20035;-41
2021/09/23 04:15:10;;;;;;;0.73;0.57;;;21.80;70.60;;;;;;5123016;28;20023;-36
2021/09/23 04:17:37;;;;;;;0.80;0.50;;;21.80;70.70;;;;;;5122472;28;20080;-36
2021/09/23 04:20:03;;;;;;;2.25;0.55;;;21.80;70.70;;;;;;5105490;28;20034;-37
2021/09/23 04:22:30;;;;;;;1.17;0.52;;;21.80;70.70;;;;;;5110765;28;20031;-36
2021/09/23 04:24:56;;;;;;;1.42;0.50;;;21.80;70.80;;;;;;5104644;28;20081;-36
2021/09/23 04:27:22;;;;;;;1.08;0.50;;;21.80;70.80;;;;;;5122970;28;20019;-36
2021/09/23 04:29:48;;;;;;;0.60;0.30;;;21.70;70.70;;;;;;5122605;28;20046;-37
2021/09/23 04:32:14;;;;;;;0.60;0.50;;;21.70;70.70;;;;;;5122923;28;20023;-36
2021/09/23 04:34:40;;;;;;;0.68;0.50;;;21.70;70.70;;;;;;5122897;28;20030;-36
2021/09/23 04:37:07;;;;;;;0.77;0.52;;;21.70;70.80;;;;;;5122713;28;20031;-37
2021/09/23 04:39:33;;;;;;;0.73;0.40;;;21.70;70.80;;;;;;5122625;28;20024;-36
2021/09/23 04:41:59;;;;;;;0.93;0.28;;;21.70;70.90;;;;;;5122863;28;20028;-36
2021/09/23 04:44:25;;;;;;;1.15;0.50;;;21.70;71.00;;;;;;5123723;28;20031;-37
2021/09/23 04:46:52;;;;;;;0.68;0.30;;;21.70;71.00;;;;;;5126884;28;20034;-36
2021/09/23 04:49:18;;;;;;;1.00;0.50;;;21.70;71.00;;;;;;5107948;28;20031;-36
2021/09/23 04:51:44;;;;;;;0.40;0.40;;;21.70;71.00;;;;;;5126379;28;20043;-36
2021/09/23 04:54:10;;;;;;;0.32;0.30;;;21.70;71.00;;;;;;5126334;28;20118;-36
2021/09/23 04:56:36;;;;;;;0.45;0.40;;;21.60;71.10;;;;;;5126478;28;20758;-36
2021/09/23 04:59:03;;;;;;;0.35;0.35;;;21.60;71.00;;;;;;5126566;28;20552;-36
2021/09/23 05:01:30;;;;;;;0.95;0.30;;;21.60;71.10;;;;;;5126055;28;20083;-37
2021/09/23 05:03:56;;;;;;;0.50;0.50;;;21.60;71.10;;;;;;5126298;28;20039;-36
2021/09/23 05:06:22;;;;;;;1.23;0.60;;;21.60;71.10;;;;;;5126461;28;20019;-36
2021/09/23 05:08:48;;;;;;;0.93;0.40;;;21.60;71.10;;;;;;5126168;28;20032;-36
2021/09/23 05:11:15;;;;;;;2.33;0.50;;;21.60;71.10;;;;;;5126131;28;20054;-36
2021/09/23 05:13:41;;;;;;;1.75;0.55;;;21.60;71.20;;;;;;5126240;28;20029;-36
2021/09/23 05:16:07;;;;;;;0.55;0.30;;;21.50;71.20;;;;;;5126005;28;20085;-36
2021/09/23 05:18:33;;;;;;;0.30;0.30;;;21.50;71.20;;;;;;5125921;28;20043;-36
2021/09/23 05:20:59;;;;;;;1.90;0.60;;;21.50;71.20;;;;;;5125878;28;20024;-36
2021/09/23 05:23:25;;;;;;;0.40;0.40;;;21.50;71.30;;;;;;5125770;28;20032;-37
2021/09/23 05:25:51;;;;;;;1.45;0.50;;;21.50;71.30;;;;;;5125866;28;20020;-36
2021/09/23 05:28:18;;;;;;;0.50;0.43;;;21.50;71.20;;;;;;5125855;28;20031;-37
2021/09/23 05:30:44;;;;;;;0.50;0.45;;;21.50;71.30;;;;;;5125677;28;20072;-36
2021/09/23 05:33:12;;;;;;;0.50;0.40;;;21.40;71.20;;;;;;5125851;28;20093;-36
2021/09/23 05:35:38;;;;;;;0.95;0.30;;;21.40;71.20;;;;;;5112165;28;20025;-37
2021/09/23 05:38:04;;;;;;;1.10;0.38;;;21.40;71.30;;;;;;5105056;28;20047;-36
2021/09/23 05:40:31;;;;;;;0.40;0.40;;;21.40;71.30;;;;;;5115462;28;20030;-36
2021/09/23 05:42:57;;;;;;;1.50;0.40;;;21.40;71.40;;;;;;5107352;28;20024;-36
2021/09/23 05:45:23;;;;;;;1.00;0.40;;;21.40;71.40;;;;;;5125502;28;20102;-36
2021/09/23 05:47:49;;;;;;;0.40;0.40;;;21.40;71.40;;;;;;5125467;28;20020;-36
2021/09/23 05:50:16;;;;;;;0.85;0.50;;;21.30;71.20;;;;;;5125182;28;20030;-36
2021/09/23 05:52:42;;;;;;;0.67;0.63;;;21.40;72.10;;;;;;5125110;28;20050;-36
2021/09/23 05:55:08;;;;;;;0.30;0.30;;;21.40;71.40;;;;;;5125356;28;20058;-36
2021/09/23 05:57:35;;;;;;;0.65;0.40;;;21.30;71.40;;;;;;5124676;28;20057;-36
2021/09/23 06:00:10;;;;;;;0.57;0.32;;;21.30;71.40;;;;;;5125141;28;20028;-36
2021/09/23 06:02:36;;;;;;;0.35;0.30;;;21.30;71.30;;;;;;5104983;28;20051;-36
2021/09/23 06:05:03;;;;;;;1.23;0.40;;;21.30;71.40;;;;;;5104728;28;20031;-36
2021/09/23 06:07:29;;;;;;;0.50;0.40;;;21.30;71.40;;;;;;5104849;28;20027;-36
2021/09/23 06:09:55;;;;;;;0.55;0.40;;;21.20;71.40;;;;;;5104618;28;20027;-36
2021/09/23 06:12:21;;;;;;;0.90;0.40;;;21.20;71.50;;;;;;5104212;28;20032;-36
2021/09/23 06:14:48;;;;;;;2.00;0.40;;;21.20;71.50;;;;;;5104629;28;20465;-36
2021/09/23 06:17:14;;;;;;;0.73;0.45;;;21.20;71.50;;;;;;5104501;28;20028;-36
2021/09/23 06:19:40;;;;;;;0.30;0.30;;;21.20;71.50;;;;;;5104513;28;20032;-36
2021/09/23 06:22:06;;;;;;;0.35;0.30;;;21.20;71.50;;;;;;5106938;28;20252;-36
2021/09/23 06:24:33;;;;;;;1.40;0.50;;;21.20;71.50;;;;;;5106761;28;20022;-37
2021/09/23 06:26:59;;;;;;;0.40;0.40;;;21.10;71.50;;;;;;5124671;28;20024;-36
2021/09/23 06:29:25;;;;;;;0.32;0.32;;;21.10;71.50;;;;;;5124499;28;20055;-36
2021/09/23 06:31:53;;;;;;;1.00;0.40;;;21.10;71.50;;;;;;5124395;28;20055;-36
2021/09/23 06:34:20;;;;;;;0.88;0.50;;;21.10;71.50;;;;;;5124665;28;20059;-36
2021/09/23 06:36:46;;;;;;;0.60;0.30;;;21.10;71.60;;;;;;5124634;28;20591;-36
2021/09/23 06:39:12;;;;;;;0.70;0.30;;;21.10;71.60;;;;;;5124430;28;20049;-36
2021/09/23 06:41:38;;;;;;;0.60;0.32;;;21.10;71.70;;;;;;5124287;28;20015;-36
2021/09/23 06:44:05;;;;;;;0.82;0.30;;;21.00;71.60;;;;;;5124342;28;20032;-36
2021/09/23 06:46:32;;;;;;;0.38;0.35;;;21.00;71.70;;;;;;5124285;28;20041;-36
2021/09/23 06:48:58;;;;;;;0.98;0.40;;;21.00;71.60;;;;;;5124427;28;20028;-36
2021/09/23 06:51:24;;;;;;;2.35;0.40;;;21.10;71.70;;;;;;5123913;28;20093;-37
2021/09/23 06:53:50;;;;;;;0.35;0.30;;;21.10;71.80;;;;;;5124164;28;20499;-36
2021/09/23 06:56:17;;;;;;;0.30;0.30;;;21.00;71.80;;;;;;5124030;28;20058;-37
2021/09/23 06:58:43;;;;;;;0.45;0.30;;;21.00;71.80;;;;;;5123893;28;20036;-36
2021/09/23 07:01:09;;;;;;;2.13;0.47;;;21.00;71.90;;;;;;5105501;28;20028;-36
2021/09/23 07:03:35;;;;;;;0.33;0.27;;;21.00;71.90;;;;;;5123992;28;20020;-37
2021/09/23 07:06:02;;;;;;;1.33;0.40;;;21.00;71.90;;;;;;5124186;28;20028;-36
2021/09/23 07:08:28;;;;;;;1.13;0.38;;;21.00;71.90;;;;;;5122882;28;20028;-36
2021/09/23 07:10:54;;;;;;;0.40;0.40;;;20.90;71.80;;;;;;5105580;28;20030;-36
2021/09/23 07:13:20;;;;;;;0.52;0.30;;;20.90;71.90;;;;;;5123650;28;20024;-37
2021/09/23 07:15:46;;;;;;;1.00;0.43;;;20.90;71.90;;;;;;5123817;28;20442;-36
2021/09/23 07:18:12;;;;;;;0.60;0.30;;;20.90;71.80;;;;;;5123752;28;20047;-36
2021/09/23 07:20:38;;;;;;;0.45;0.40;;;20.90;71.90;;;;;;5105485;28;20054;-36
2021/09/23 07:23:05;;;;;;;0.52;0.40;;;20.90;71.90;;;;;;5110173;28;20027;-36
2021/09/23 07:25:33;;;;;;;0.52;0.30;;;20.90;72.00;;;;;;5113932;28;20028;-37
2021/09/23 07:28:00;;;;;;;0.82;0.30;;;20.90;72.00;;;;;;5123408;28;20032;-37
2021/09/23 07:30:26;;;;;;;0.32;0.32;;;20.90;72.00;;;;;;5123640;28;20135;-36
2021/09/23 07:32:52;;;;;;;0.50;0.30;;;20.80;71.90;;;;;;5123178;28;20043;-36
2021/09/23 07:35:18;;;;;;;1.83;0.50;;;20.80;71.90;;;;;;5123426;28;20024;-36
2021/09/23 07:37:45;;;;;;;0.55;0.30;;;20.80;72.00;;;;;;5105186;28;20681;-36
2021/09/23 07:40:11;;;;;;;1.15;0.40;;;20.80;72.00;;;;;;5121886;28;20106;-36
2021/09/23 07:42:38;;;;;;;0.60;0.32;;;20.80;72.10;;;;;;5104200;28;20028;-36
2021/09/23 07:45:04;;;;;;;1.75;0.40;;;20.80;72.10;;;;;;5102939;28;20032;-36
2021/09/23 07:47:31;;;;;;;0.77;0.40;;;20.70;72.00;;;;;;5102855;28;20030;-37
2021/09/23 07:49:57;;;;;;;0.47;0.40;;;20.70;72.00;;;;;;5102743;28;20042;-36
2021/09/23 07:52:23;;;;;;;1.48;0.40;;;20.70;72.00;;;;;;5110064;28;20047;-36
2021/09/23 07:54:52;;;;;;;0.20;0.20;;;20.70;72.10;;;;;;5123338;28;20024;-36
2021/09/23 07:57:19;;;;;;;0.52;0.30;;;20.70;72.10;;;;;;5122805;28;20038;-36
2021/09/23 07:59:45;;;;;;;0.80;0.30;;;20.70;72.10;;;;;;5123244;28;20143;-36
2021/09/23 08:02:11;;;;;;;0.30;0.30;;;20.70;72.10;;;;;;5123036;28;20047;-36
2021/09/23 08:04:37;;;;;;;1.67;0.40;;;20.70;72.20;;;;;;5123134;28;20028;-36
2021/09/23 08:07:03;;;;;;;0.52;0.20;;;20.70;72.10;;;;;;5123223;28;20016;-36
2021/09/23 08:09:30;;;;;;;0.73;0.30;;;20.70;72.20;;;;;;5123187;28;20019;-36
2021/09/23 08:11:58;;;;;;;1.67;0.30;;;20.60;72.10;;;;;;5122809;28;20049;-36
2021/09/23 08:14:27;;;;;;;0.40;0.40;;;20.60;72.20;;;;;;5119155;28;20028;-36
2021/09/23 08:16:53;;;;;;;0.73;0.47;;;20.60;72.10;;;;;;5123121;28;20020;-36
2021/09/23 08:19:20;;;;;;;0.30;0.30;;;20.60;72.90;;;;;;5123933;28;20062;-36
2021/09/23 08:21:46;;;;;;;0.57;0.35;;;20.60;72.20;;;;;;5127183;28;20043;-36
2021/09/23 08:24:12;;;;;;;0.32;0.30;;;20.60;72.20;;;;;;5127087;28;20039;-36
2021/09/23 08:26:38;;;;;;;1.50;0.30;;;20.60;72.30;;;;;;5127039;28;20028;-36
2021/09/23 08:29:04;;;;;;;0.40;0.40;;;20.50;72.10;;;;;;5127202;28;20062;-36
2021/09/23 08:31:30;;;;;;;0.35;0.30;;;20.50;72.20;;;;;;5127254;28;20024;-36
2021/09/23 08:33:57;;;;;;;0.50;0.35;;;20.50;72.20;;;;;;5126767;28;20102;-36
2021/09/23 08:36:23;;;;;;;0.98;0.30;;;20.50;72.30;;;;;;5108661;28;20053;-36
2021/09/23 08:38:50;;;;;;;0.43;0.30;;;20.50;72.30;;;;;;5126737;28;20054;-36
2021/09/23 08:41:16;;;;;;;;;;;20.50;72.20;;;;;;5127471;28;20031;-37
2021/09/23 08:43:42;;;;;;;0.30;0.30;;;20.50;72.30;;;;;;5126721;28;19911;-37
2021/09/23 08:46:08;;;;;;;0.40;0.40;;;20.50;72.30;;;;;;5126939;28;20032;-36
2021/09/23 08:48:35;;;;;;;0.90;0.40;;;20.40;72.30;;;;;;5126869;28;20027;-36
2021/09/23 08:51:01;;;;;;;0.40;0.30;;;20.40;72.30;;;;;;5126788;28;20071;-36
2021/09/23 08:53:27;;;;;;;0.30;0.30;;;20.40;72.30;;;;;;5126431;28;20020;-36
2021/09/23 08:55:53;;;;;;;0.50;0.22;;;20.40;72.30;;;;;;5126305;28;20043;-39
2021/09/23 08:58:20;;;;;;;0.25;0.20;;;20.40;72.30;;;;;;5126674;28;20035;-36
2021/09/23 09:01:02;;;;;;;0.20;0.20;;;20.40;72.40;;;;;;5126774;28;20115;-36
2021/09/23 09:03:32;;;;;;;0.95;0.30;;;20.40;72.50;;;;;;5126467;28;20024;-36
2021/09/23 09:05:59;;;;;;;0.90;0.30;;;20.40;72.40;;;;;;5126482;28;20027;-36
2021/09/23 09:08:28;;;;;;;0.63;0.40;;;20.40;72.50;;;;;;5126449;28;20032;-36
2021/09/23 09:10:54;;;;;;;1.30;0.38;;;20.40;72.50;;;;;;5126398;28;20082;-36
2021/09/23 09:13:20;;;;;;;0.10;0.10;;;20.30;72.60;;;;;;5126106;28;20034;-37
2021/09/23 09:15:47;;;;;;;0.20;0.20;;;20.30;72.50;;;;;;5126445;28;20024;-36
2021/09/23 09:18:16;;;;;;;0.40;0.40;;;20.30;72.50;;;;;;5126215;28;20036;-36
2021/09/23 09:21:09;;;;;;;0.75;0.40;;;20.30;72.50;;;;;;5126290;28;20027;-36
2021/09/23 09:23:48;;;;;;;0.77;0.30;;;20.30;72.60;;;;;;5125632;28;20031;-37
2021/09/23 09:26:37;;;;;;;0.47;0.30;;;20.30;72.70;;;;;;5108301;28;20027;-37
2021/09/23 09:29:04;;;;;;;;;;;20.30;72.70;;;;;;5126656;28;20015;-36
2021/09/23 09:31:30;;;;;;;0.35;0.30;;;20.20;72.60;;;;;;5124916;28;19914;-36
2021/09/23 09:33:59;;;;;;;0.57;0.40;;;20.20;72.70;;;;;;5125718;28;20023;-36
2021/09/23 09:36:30;;;;;;;0.43;0.30;;;20.20;72.70;;;;;;5124160;28;20115;-36
2021/09/23 09:38:58;;;;;;;0.77;0.30;;;20.20;72.80;;;;;;5105191;28;20028;-36
2021/09/23 09:41:26;;;;;;;0.20;0.20;;;20.20;72.70;;;;;;5105645;28;20027;-36
2021/09/23 09:43:56;;;;;;;0.30;0.25;;;20.20;72.80;;;;;;5105200;28;20028;-36
2021/09/23 09:46:33;;;;;;;0.20;0.20;;;20.20;72.90;;;;;;5105318;28;20024;-36
2021/09/23 09:49:00;;;;;;;1.23;0.40;;;20.20;73.00;;;;;;5105382;28;20028;-36
2021/09/23 09:51:46;;;;;;;0.20;0.20;;;20.10;72.90;;;;;;5105163;28;20051;-36
2021/09/23 09:54:14;;;;;;;0.30;0.30;;;20.10;72.90;;;;;;5104845;28;20050;-36
2021/09/23 09:56:44;;;;;;;0.30;0.30;;;20.10;72.90;;;;;;5105417;28;20088;-37
2021/09/23 09:59:13;;;;;;;0.50;0.20;;;20.10;73.00;;;;;;5087118;28;20066;-36
2021/09/23 10:01:41;;;;;;;0.40;0.40;;;20.10;73.00;;;;;;5105057;28;20027;-36
2021/09/23 10:04:08;;;;;;;0.30;0.30;;;20.10;73.00;;;;;;5104913;28;20122;-36
2021/09/23 10:06:34;;;;;;;;;;;20.10;73.00;;;;;;5108330;28;20028;-36
2021/09/23 10:09:00;;;;;;;0.38;0.38;;;20.10;73.10;;;;;;5104645;28;19910;-37
2021/09/23 10:11:27;;;;;;;0.70;0.30;;;20.10;73.80;;;;;;5105114;28;20027;-37
2021/09/23 10:13:53;;;;;;;0.30;0.30;;;20.00;73.10;;;;;;5104721;28;20045;-36
2021/09/23 10:16:20;;;;;;;2.08;0.32;;;20.00;73.00;;;;;;5086748;28;20050;-36
2021/09/23 10:18:48;;;;;;;0.55;0.32;;;20.00;73.10;;;;;;5104718;28;20044;-36
2021/09/23 10:21:14;;;;;;;0.65;0.30;;;20.00;73.20;;;;;;5104649;28;20193;-36
2021/09/23 10:23:44;;;;;;;0.80;0.30;;;20.00;73.90;;;;;;5122827;28;20070;-36
2021/09/23 10:26:13;;;;;;;0.30;0.30;;;20.00;73.20;;;;;;5124771;28;20097;-36
2021/09/23 10:28:46;;;;;;;0.88;0.30;;;19.90;73.30;;;;;;5107013;28;20035;-36
2021/09/23 10:31:22;;;;;;;0.20;0.20;;;19.90;73.20;;;;;;5106604;28;20015;-36
2021/09/23 10:33:49;;;;;;;0.28;0.28;;;19.90;73.20;;;;;;5124902;28;20042;-36
2021/09/23 10:36:16;;;;;;;0.27;0.27;;;19.90;73.30;;;;;;5124620;28;20061;-37
2021/09/23 10:38:43;;;;;;;0.40;0.30;;;19.90;73.30;;;;;;5124790;28;20498;-36
2021/09/23 10:41:12;;;;;;;0.30;0.30;;;19.90;73.30;;;;;;5124904;28;20031;-36
2021/09/23 10:43:40;;;;;;;0.32;0.32;;;19.90;73.30;;;;;;5106053;28;20028;-36
2021/09/23 10:46:06;;;;;;;0.65;0.40;;;19.90;73.30;;;;;;5124577;28;20015;-36
2021/09/23 10:48:35;;;;;;;0.30;0.30;;;19.90;73.40;;;;;;5106397;28;20034;-36
2021/09/23 10:51:03;;;;;;;0.60;0.30;;;19.90;73.30;;;;;;5105953;28;20046;-36
2021/09/23 10:53:30;;;;;;;;;;;19.80;73.30;;;;;;5124732;28;20062;-36
2021/09/23 10:56:03;;;;;;;0.85;0.30;;;19.80;73.50;;;;;;5124158;28;19972;-36
2021/09/23 10:58:30;;;;;;;0.40;0.30;;;19.80;73.50;;;;;;5124336;28;20114;-36
2021/09/23 11:01:00;;;;;;;0.30;0.30;;;19.80;73.50;;;;;;5106329;28;20016;-37
2021/09/23 11:03:38;;;;;;;0.93;0.38;;;19.80;73.50;;;;;;5124411;28;20057;-36
2021/09/23 11:06:11;;;;;;;1.02;0.47;;;19.80;73.60;;;;;;5124240;28;20058;-36
2021/09/23 11:08:41;;;;;;;0.40;0.20;;;19.80;73.60;;;;;;5124153;28;20119;-36
2021/09/23 11:11:08;;;;;;;0.20;0.20;;;19.70;73.50;;;;;;5124320;28;20023;-36
2021/09/23 11:13:36;;;;;;;0.30;0.30;;;19.70;73.40;;;;;;5124162;28;20051;-36
2021/09/23 11:16:10;;;;;;;1.67;0.30;;;19.70;73.60;;;;;;5123849;28;20023;-36
2021/09/23 11:18:37;;;;;;;0.40;0.30;;;19.70;73.70;;;;;;5123864;28;20039;-36
2021/09/23 11:21:04;;;;;;;0.33;0.20;;;19.70;73.60;;;;;;5105801;28;20024;-36
2021/09/23 11:23:30;;;;;;;;;;;19.70;73.60;;;;;;5124276;28;20480;-36
2021/09/23 11:25:56;;;;;;;0.80;0.30;;;19.70;73.70;;;;;;5105219;28;20279;-36
2021/09/23 11:28:23;;;;;;;3.05;0.45;;;19.70;73.60;;;;;;5105202;28;20049;-36
2021/09/23 11:30:52;;;;;;;1.00;0.30;;;19.70;73.70;;;;;;5123731;28;20028;-37
2021/09/23 11:33:21;;;;;;;0.45;0.25;;;19.70;73.70;;;;;;5124125;28;20263;-36
2021/09/23 11:35:48;;;;;;;1.02;0.30;;;19.70;73.80;;;;;;5123510;28;20091;-36
2021/09/23 11:38:18;;;;;;;0.35;0.30;;;19.60;73.80;;;;;;5105611;28;20813;-36
2021/09/23 11:40:45;;;;;;;0.30;0.30;;;19.60;74.50;;;;;;5123597;28;20049;-36
2021/09/23 11:43:16;;;;;;;0.50;0.33;;;19.60;73.70;;;;;;5123801;28;20027;-36
2021/09/23 11:45:44;;;;;;;0.50;0.30;;;19.60;73.90;;;;;;5123732;28;20038;-36
2021/09/23 11:48:14;;;;;;;0.80;0.38;;;19.60;73.90;;;;;;5123574;28;20422;-36
2021/09/23 11:50:42;;;;;;;0.40;0.32;;;19.60;73.90;;;;;;5123410;28;20053;-37
2021/09/23 11:53:10;;;;;;;0.45;0.30;;;19.60;73.90;;;;;;5105091;28;20036;-36
2021/09/23 11:55:43;;;;;;;1.50;0.30;;;19.50;73.90;;;;;;5122320;28;20051;-36
2021/09/23 11:58:15;;;;;;;0.28;0.20;;;19.50;73.90;;;;;;5123487;28;20785;-37
2021/09/23 12:00:48;;;;;;;0.40;0.40;;;19.50;73.90;;;;;;5123487;28;20031;-36
2021/09/23 12:03:17;;;;;;;0.38;0.30;;;19.50;74.00;;;;;;5123276;28;20382;-36
2021/09/23 12:05:45;;;;;;;0.93;0.30;;;19.50;74.00;;;;;;5123054;28;20047;-36
2021/09/23 12:08:12;;;;;;;0.30;0.30;;;19.50;74.00;;;;;;5123337;28;20032;-37
2021/09/23 12:10:51;;;;;;;0.30;0.30;;;19.50;74.00;;;;;;5123379;28;20376;-36
2021/09/23 12:13:39;;;;;;;0.57;0.30;;;19.40;74.00;;;;;;5122897;28;20427;-37
2021/09/23 12:16:18;;;;;;;0.35;0.30;;;19.40;73.90;;;;;;5122289;28;20031;-36
2021/09/23 12:18:46;;;;;;;0.30;0.20;;;19.40;74.70;;;;;;5105504;28;20039;-36
2021/09/23 12:21:23;;;;;;;0.30;0.30;;;19.40;74.00;;;;;;5123121;28;20061;-36
2021/09/23 12:23:53;;;;;;;0.45;0.30;;;19.40;74.10;;;;;;5122222;28;20635;-36
2021/09/23 12:26:20;;;;;;;0.77;0.30;;;19.40;74.10;;;;;;5122902;28;20069;-36
2021/09/23 12:28:55;;;;;;;0.77;0.22;;;19.40;74.10;;;;;;5123034;28;20099;-36
2021/09/23 12:31:39;;;;;;;0.32;0.30;;;19.40;74.20;;;;;;5123322;28;20022;-36
2021/09/23 12:34:18;;;;;;;0.57;0.50;;;19.30;74.10;;;;;;5123233;28;20496;-36
2021/09/23 12:36:46;;;;;;;1.02;0.40;;;19.30;74.10;;;;;;5122840;28;20097;-36
2021/09/23 12:39:20;;;;;;;0.30;0.30;;;19.30;74.00;;;;;;5122918;28;20476;-36
2021/09/23 12:41:52;;;;;;;1.02;0.40;;;19.30;74.00;;;;;;5122949;28;20031;-36
2021/09/23 12:44:20;;;;;;;1.85;0.20;;;19.30;74.00;;;;;;5123198;28;20472;-36
2021/09/23 12:47:01;;;;;;;0.93;0.40;;;19.30;74.00;;;;;;5122697;28;20023;-36
2021/09/23 12:49:27;;;;;;;0.30;0.30;;;19.30;74.00;;;;;;5107253;28;20028;-36
2021/09/23 12:51:54;;;;;;;0.85;0.30;;;19.30;74.00;;;;;;5122585;28;20052;-36